createdAt,value
2023-05-02T00:00:27.614Z,269.47
2023-05-02T00:01:27.614Z,270.13
2023-05-02T00:02:27.698Z,270.80
2023-05-02T00:03:27.699Z,272.15
2023-05-02T00:04:27.599Z,273.51
2023-05-02T00:05:27.560Z,273.74
2023-05-02T00:06:27.665Z,275.81
2023-05-02T00:07:27.537Z,276.74
2023-05-02T00:08:27.542Z,278.62
2023-05-02T00:09:27.529Z,279.57
2023-05-02T00:10:27.539Z,280.52
2023-05-02T00:11:27.525Z,281.49
2023-05-02T00:12:27.506Z,282.46
2023-05-02T00:13:27.497Z,281.97
2023-05-02T00:14:27.454Z,285.65
2023-05-02T00:15:27.522Z,286.65
2023-05-02T00:16:27.497Z,285.65
2023-05-02T00:17:27.498Z,286.90
2023-05-02T00:18:27.503Z,288.92
2023-05-02T00:19:27.407Z,290.97
2023-05-02T00:20:27.427Z,291.75
2023-05-02T00:21:27.413Z,292.01
2023-05-02T00:22:27.381Z,292.27
2023-05-02T00:23:27.443Z,294.63
2023-05-02T00:24:27.366Z,294.63
2023-05-02T00:25:27.350Z,295.16
2023-05-02T00:26:27.359Z,296.76
2023-05-02T00:27:27.314Z,296.23
2023-05-02T00:28:27.350Z,297.03
2023-05-02T00:29:27.295Z,299.20
2023-05-02T00:30:27.292Z,300.57
2023-05-02T00:31:27.349Z,300.29
2023-05-02T00:32:27.296Z,301.40
2023-05-02T00:33:27.288Z,301.95
2023-05-02T00:34:27.253Z,301.95
2023-05-02T00:35:27.247Z,303.63
2023-05-02T00:36:27.216Z,305.61
2023-05-02T00:37:27.259Z,305.61
2023-05-02T00:38:27.204Z,304.47
2023-05-02T00:39:27.189Z,305.61
2023-05-02T00:40:27.177Z,305.89
2023-05-02T00:41:27.182Z,306.75
2023-05-02T00:42:27.163Z,307.90
2023-05-02T00:43:27.149Z,306.75
2023-05-02T00:44:27.154Z,307.90
2023-05-02T00:45:27.128Z,308.19
2023-05-02T00:46:27.185Z,306.18
2023-05-02T00:47:27.120Z,307.90
2023-05-02T00:48:27.111Z,308.19
2023-05-02T00:49:27.077Z,307.90
2023-05-02T00:50:27.069Z,308.48
2023-05-02T00:51:27.088Z,309.64
2023-05-02T00:52:27.046Z,309.94
2023-05-02T00:53:27.040Z,309.64
2023-05-02T00:54:27.026Z,311.41
2023-05-02T00:55:27.026Z,309.94
2023-05-02T00:56:27.035Z,311.11
2023-05-02T00:57:26.995Z,311.41
2023-05-02T00:58:27.002Z,311.70
2023-05-02T00:59:26.983Z,312.60
2023-05-02T01:00:28.328Z,310.82
2023-05-02T01:01:27.007Z,312.89
2023-05-02T01:02:27.015Z,312.89
2023-05-02T01:03:27.223Z,313.79
2023-05-02T01:04:26.940Z,312.60
2023-05-02T01:05:26.914Z,313.79
2023-05-02T01:06:26.989Z,315.00
2023-05-02T01:07:26.897Z,315.30
2023-05-02T01:08:26.877Z,316.21
2023-05-02T01:09:26.862Z,317.43
2023-05-02T01:10:26.867Z,317.13
2023-05-02T01:11:26.860Z,316.52
2023-05-02T01:12:26.844Z,319.29
2023-05-02T01:13:26.818Z,318.67
2023-05-02T01:14:26.802Z,318.67
2023-05-02T01:15:26.788Z,319.60
2023-05-02T01:16:26.842Z,319.91
2023-05-02T01:17:26.803Z,320.54
2023-05-02T01:18:26.777Z,318.36
2023-05-02T01:19:26.745Z,317.74
2023-05-02T01:20:26.767Z,319.91
2023-05-02T01:21:26.754Z,320.22
2023-05-02T01:22:26.713Z,319.60
2023-05-02T01:23:26.733Z,318.36
2023-05-02T01:24:26.713Z,318.67
2023-05-02T01:25:26.695Z,319.91
2023-05-02T01:26:26.705Z,319.91
2023-05-02T01:27:26.727Z,320.54
2023-05-02T01:28:26.643Z,320.54
2023-05-02T01:29:26.640Z,320.85
2023-05-02T01:30:26.632Z,321.16
2023-05-02T01:31:26.657Z,322.74
2023-05-02T01:32:26.625Z,322.42
2023-05-02T01:33:26.620Z,319.29
2023-05-02T01:34:26.601Z,321.16
2023-05-02T01:35:26.573Z,319.60
2023-05-02T01:36:26.591Z,323.70
2023-05-02T01:37:26.557Z,321.48
2023-05-02T01:38:26.546Z,321.79
2023-05-02T01:39:26.557Z,322.11
2023-05-02T01:40:26.536Z,321.79
2023-05-02T01:41:26.511Z,323.06
2023-05-02T01:42:26.553Z,322.74
2023-05-02T01:43:26.523Z,324.02
2023-05-02T01:44:26.484Z,321.79
2023-05-02T01:45:26.465Z,322.74
2023-05-02T01:46:26.662Z,323.38
2023-05-02T01:47:26.491Z,323.38
2023-05-02T01:48:26.456Z,321.79
2023-05-02T01:49:26.446Z,321.79
2023-05-02T01:50:26.440Z,324.98
2023-05-02T01:51:26.401Z,322.42
2023-05-02T01:52:26.451Z,323.06
2023-05-02T01:53:26.400Z,323.06
2023-05-02T01:54:26.378Z,324.66
2023-05-02T01:55:26.376Z,323.70
2023-05-02T01:56:26.348Z,324.02
2023-05-02T01:57:26.370Z,324.34
2023-05-02T01:58:26.362Z,325.30
2023-05-02T01:59:26.323Z,324.34
2023-05-02T02:00:26.301Z,322.42
2023-05-02T02:01:26.326Z,323.06
2023-05-02T02:02:26.289Z,322.11
2023-05-02T02:03:26.339Z,323.70
2023-05-02T02:04:26.365Z,322.11
2023-05-02T02:05:26.256Z,320.22
2023-05-02T02:06:26.389Z,320.85
2023-05-02T02:07:26.230Z,322.11
2023-05-02T02:08:26.307Z,322.42
2023-05-02T02:09:26.205Z,320.54
2023-05-02T02:10:26.204Z,319.91
2023-05-02T02:11:26.193Z,318.05
2023-05-02T02:12:26.193Z,318.67
2023-05-02T02:13:26.192Z,318.98
2023-05-02T02:14:26.180Z,319.60
2023-05-02T02:15:26.143Z,318.36
2023-05-02T02:16:26.159Z,318.05
2023-05-02T02:17:26.182Z,317.74
2023-05-02T02:18:26.110Z,318.98
2023-05-02T02:19:26.130Z,317.43
2023-05-02T02:20:26.086Z,316.82
2023-05-02T02:21:26.081Z,315.90
2023-05-02T02:22:26.064Z,315.30
2023-05-02T02:23:26.093Z,312.60
2023-05-02T02:24:26.085Z,315.60
2023-05-02T02:25:26.726Z,313.79
2023-05-02T02:26:26.021Z,315.00
2023-05-02T02:27:26.019Z,313.79
2023-05-02T02:28:26.004Z,314.69
2023-05-02T02:29:26.008Z,312.60
2023-05-02T02:30:25.982Z,313.19
2023-05-02T02:31:26.124Z,312.00
2023-05-02T02:32:26.009Z,308.77
2023-05-02T02:33:25.938Z,308.77
2023-05-02T02:34:25.952Z,311.41
2023-05-02T02:35:25.921Z,311.11
2023-05-02T02:36:25.906Z,310.23
2023-05-02T02:37:25.900Z,309.64
2023-05-02T02:38:25.922Z,308.48
2023-05-02T02:39:25.898Z,309.35
2023-05-02T02:40:25.861Z,309.94
2023-05-02T02:41:25.875Z,308.77
2023-05-02T02:42:25.847Z,308.48
2023-05-02T02:43:25.840Z,307.61
2023-05-02T02:44:25.847Z,307.90
2023-05-02T02:45:25.819Z,306.75
2023-05-02T02:46:25.870Z,304.19
2023-05-02T02:47:25.795Z,305.04
2023-05-02T02:48:25.817Z,306.75
2023-05-02T02:49:25.796Z,304.19
2023-05-02T02:50:25.763Z,306.46
2023-05-02T02:51:25.757Z,308.48
2023-05-02T02:52:25.787Z,305.89
2023-05-02T02:53:25.725Z,305.89
2023-05-02T02:54:27.339Z,303.91
2023-05-02T02:55:25.707Z,303.91
2023-05-02T02:56:25.704Z,305.04
2023-05-02T02:57:25.698Z,301.95
2023-05-02T02:58:25.686Z,303.63
2023-05-02T02:59:25.679Z,302.23
2023-05-02T03:00:25.675Z,298.38
2023-05-02T03:01:25.693Z,298.11
2023-05-02T03:02:25.621Z,299.20
2023-05-02T03:03:25.704Z,295.43
2023-05-02T03:04:25.639Z,295.69
2023-05-02T03:05:25.655Z,297.30
2023-05-02T03:06:25.694Z,294.37
2023-05-02T03:07:25.586Z,294.63
2023-05-02T03:08:25.575Z,293.31
2023-05-02T03:09:25.547Z,292.79
2023-05-02T03:10:25.553Z,293.31
2023-05-02T03:11:26.372Z,294.10
2023-05-02T03:12:25.512Z,293.31
2023-05-02T03:13:25.504Z,289.94
2023-05-02T03:14:25.548Z,288.92
2023-05-02T03:15:25.522Z,290.97
2023-05-02T03:16:25.534Z,287.15
2023-05-02T03:17:26.317Z,287.40
2023-05-02T03:18:25.446Z,288.92
2023-05-02T03:19:25.460Z,287.91
2023-05-02T03:20:25.427Z,284.66
2023-05-02T03:21:25.427Z,284.91
2023-05-02T03:22:25.423Z,285.65
2023-05-02T03:23:25.391Z,284.42
2023-05-02T03:24:25.440Z,283.43
2023-05-02T03:25:25.374Z,282.70
2023-05-02T03:26:25.373Z,281.97
2023-05-02T03:27:25.364Z,279.81
2023-05-02T03:28:25.334Z,278.62
2023-05-02T03:29:25.357Z,279.09
2023-05-02T03:30:25.325Z,278.62
2023-05-02T03:31:26.654Z,279.09
2023-05-02T03:32:25.338Z,279.33
2023-05-02T03:33:25.313Z,276.27
2023-05-02T03:34:25.295Z,278.62
2023-05-02T03:35:25.273Z,275.58
2023-05-02T03:36:25.288Z,274.42
2023-05-02T03:37:25.251Z,273.74
2023-05-02T03:38:25.414Z,273.97
2023-05-02T03:39:25.229Z,272.37
2023-05-02T03:40:25.210Z,274.42
2023-05-02T03:41:25.197Z,271.47
2023-05-02T03:42:25.215Z,270.13
2023-05-02T03:43:25.217Z,270.35
2023-05-02T03:44:25.170Z,269.47
2023-05-02T03:45:25.164Z,268.58
2023-05-02T03:46:25.191Z,269.69
2023-05-02T03:47:25.192Z,269.69
2023-05-02T03:48:25.136Z,267.27
2023-05-02T03:49:25.125Z,266.19
2023-05-02T03:50:25.117Z,268.58
2023-05-02T03:51:25.101Z,267.71
2023-05-02T03:52:25.123Z,267.93
2023-05-02T03:53:25.064Z,265.97
2023-05-02T03:54:25.097Z,264.68
2023-05-02T03:55:25.054Z,264.68
2023-05-02T03:56:25.053Z,265.54
2023-05-02T03:57:25.049Z,264.26
2023-05-02T03:58:25.020Z,262.99
2023-05-02T03:59:25.032Z,266.62
2023-05-02T04:00:25.005Z,264.68
2023-05-02T04:01:24.992Z,264.05
2023-05-02T04:02:25.033Z,264.90
2023-05-02T04:03:26.154Z,263.20
2023-05-02T04:04:25.035Z,263.41
2023-05-02T04:05:24.938Z,263.20
2023-05-02T04:06:24.938Z,260.89
2023-05-02T04:07:24.939Z,262.15
2023-05-02T04:08:24.916Z,263.41
2023-05-02T04:09:24.957Z,262.15
2023-05-02T04:10:24.907Z,263.20
2023-05-02T04:11:24.879Z,264.47
2023-05-02T04:12:24.889Z,263.41
2023-05-02T04:13:24.866Z,264.68
2023-05-02T04:14:24.861Z,262.78
2023-05-02T04:15:24.865Z,265.11
2023-05-02T04:16:24.847Z,263.83
2023-05-02T04:17:24.822Z,264.05
2023-05-02T04:18:24.833Z,266.19
2023-05-02T04:19:24.785Z,264.90
2023-05-02T04:20:24.802Z,265.54
2023-05-02T04:21:24.778Z,264.47
2023-05-02T04:22:24.759Z,264.68
2023-05-02T04:23:24.750Z,264.05
2023-05-02T04:24:24.758Z,265.97
2023-05-02T04:25:24.739Z,263.83
2023-05-02T04:26:24.707Z,263.41
2023-05-02T04:27:24.710Z,264.26
2023-05-02T04:28:24.722Z,262.78
2023-05-02T04:29:24.687Z,262.57
2023-05-02T04:31:36.111Z,301.95
2023-05-02T04:32:36.012Z,289.94
2023-05-02T04:33:35.968Z,283.68
2023-05-02T04:34:36.042Z,280.52
2023-05-02T04:35:35.986Z,274.42
2023-05-02T04:36:35.938Z,271.70
2023-05-02T04:37:35.936Z,269.91
2023-05-02T04:38:35.963Z,267.71
2023-05-02T04:39:35.969Z,266.62
2023-05-02T04:40:35.941Z,264.68
2023-05-02T04:41:35.886Z,264.05
2023-05-02T04:42:35.898Z,262.57
2023-05-02T04:43:35.913Z,264.68
2023-05-02T04:44:35.879Z,261.73
2023-05-02T04:45:35.839Z,260.89
2023-05-02T04:46:35.853Z,261.73
2023-05-02T04:47:35.888Z,259.66
2023-05-02T04:48:35.816Z,259.04
2023-05-02T04:49:35.832Z,258.02
2023-05-02T04:50:35.790Z,257.21
2023-05-02T04:51:35.832Z,255.61
2023-05-02T04:52:35.796Z,254.82
2023-05-02T04:53:35.831Z,254.42
2023-05-02T04:54:35.785Z,253.63
2023-05-02T04:55:35.747Z,252.08
2023-05-02T04:56:35.758Z,251.69
2023-05-02T04:57:35.721Z,249.96
2023-05-02T04:58:35.766Z,249.77
2023-05-02T04:59:35.689Z,249.39
2023-05-02T05:00:35.675Z,246.03
2023-05-02T05:01:35.707Z,246.21
2023-05-02T05:02:35.773Z,246.58
2023-05-02T05:03:35.784Z,244.20
2023-05-02T05:04:35.642Z,243.11
2023-05-02T05:05:35.657Z,243.29
2023-05-02T05:06:35.658Z,240.79
2023-05-02T05:07:35.609Z,240.09
2023-05-02T05:08:35.607Z,240.44
2023-05-02T05:09:35.580Z,238.69
2023-05-02T05:10:35.596Z,238.86
2023-05-02T05:11:35.567Z,238.69
2023-05-02T05:12:35.560Z,239.04
2023-05-02T05:13:35.643Z,237.48
2023-05-02T05:14:35.532Z,238.17
2023-05-02T05:15:35.537Z,241.32
2023-05-02T05:16:35.634Z,240.62
2023-05-02T05:17:35.540Z,240.97
2023-05-02T05:18:35.497Z,240.97
2023-05-02T05:19:35.511Z,241.68
2023-05-02T05:20:35.471Z,241.50
2023-05-02T05:21:35.507Z,242.39
2023-05-02T05:22:35.462Z,242.39
2023-05-02T05:23:37.128Z,241.50
2023-05-02T05:24:37.615Z,242.39
2023-05-02T05:25:35.412Z,240.97
2023-05-02T05:26:35.417Z,240.62
2023-05-02T05:27:35.384Z,243.11
2023-05-02T05:28:35.471Z,241.15
2023-05-02T05:29:35.377Z,242.39
2023-05-02T05:30:35.351Z,240.62
2023-05-02T05:31:35.407Z,241.32
2023-05-02T05:32:35.338Z,240.26
2023-05-02T05:33:35.389Z,239.74
2023-05-02T05:34:35.317Z,239.21
2023-05-02T05:35:35.333Z,238.52
2023-05-02T05:36:35.290Z,238.17
2023-05-02T05:37:35.291Z,237.14
2023-05-02T05:38:35.288Z,236.45
2023-05-02T05:39:35.253Z,235.10
2023-05-02T05:40:35.256Z,237.48
2023-05-02T05:41:35.303Z,235.44
2023-05-02T05:42:35.222Z,237.65
2023-05-02T05:43:37.764Z,235.77
2023-05-02T05:44:35.211Z,235.44
2023-05-02T05:45:35.196Z,234.93
2023-05-02T05:46:35.253Z,234.76
2023-05-02T05:47:35.265Z,234.76
2023-05-02T05:48:35.175Z,233.93
2023-05-02T05:49:35.983Z,232.43
2023-05-02T05:50:35.130Z,232.10
2023-05-02T05:51:35.150Z,231.78
2023-05-02T05:52:35.126Z,231.45
2023-05-02T05:53:35.125Z,230.15
2023-05-02T05:54:35.093Z,229.67
2023-05-02T05:55:37.221Z,228.87
2023-05-02T05:56:35.085Z,230.64
2023-05-02T05:57:35.141Z,227.91
2023-05-02T05:58:35.070Z,229.51
2023-05-02T05:59:35.040Z,229.19
2023-05-02T06:00:35.033Z,229.83
2023-05-02T06:01:35.012Z,226.81
2023-05-02T06:02:35.110Z,228.87
2023-05-02T06:03:35.263Z,228.55
2023-05-02T06:04:35.059Z,228.23
2023-05-02T06:05:34.969Z,226.18
2023-05-02T06:06:34.988Z,225.87
2023-05-02T06:07:34.961Z,225.72
2023-05-02T06:08:34.977Z,225.87
2023-05-02T06:09:34.942Z,226.50
2023-05-02T06:10:34.947Z,226.18
2023-05-02T06:11:34.923Z,224.33
2023-05-02T06:12:34.914Z,224.64
2023-05-02T06:13:34.919Z,222.50
2023-05-02T06:14:34.905Z,221.60
2023-05-02T06:15:34.873Z,221.60
2023-05-02T06:16:34.965Z,219.82
2023-05-02T06:17:34.869Z,218.94
2023-05-02T06:18:34.871Z,218.79
2023-05-02T06:19:34.831Z,218.94
2023-05-02T06:20:34.818Z,218.21
2023-05-02T06:21:34.808Z,218.94
2023-05-02T06:22:34.794Z,220.26
2023-05-02T06:23:34.844Z,219.53
2023-05-02T06:24:34.793Z,218.36
2023-05-02T06:25:34.844Z,220.86
2023-05-02T06:26:34.747Z,217.63
2023-05-02T06:27:34.765Z,218.79
2023-05-02T06:28:34.749Z,219.53
2023-05-02T06:29:34.743Z,217.92
2023-05-02T06:30:34.699Z,218.79
2023-05-02T06:31:34.720Z,218.65
2023-05-02T06:32:34.712Z,219.38
2023-05-02T06:33:34.749Z,220.41
2023-05-02T06:34:34.673Z,221.01
2023-05-02T06:35:34.653Z,219.97
2023-05-02T06:36:34.644Z,219.53
2023-05-02T06:37:34.630Z,221.01
2023-05-02T06:38:34.649Z,220.71
2023-05-02T06:39:34.622Z,219.09
2023-05-02T06:40:34.590Z,220.71
2023-05-02T06:41:34.584Z,220.86
2023-05-02T06:42:34.570Z,220.56
2023-05-02T06:43:34.572Z,219.38
2023-05-02T06:44:34.577Z,219.38
2023-05-02T06:45:34.557Z,220.12
2023-05-02T06:46:34.554Z,218.79
2023-05-02T06:47:34.526Z,217.20
2023-05-02T06:48:34.524Z,216.34
2023-05-02T06:49:34.552Z,216.20
2023-05-02T06:50:34.488Z,217.63
2023-05-02T06:51:34.481Z,216.77
2023-05-02T06:52:34.485Z,216.20
2023-05-02T06:53:34.515Z,216.63
2023-05-02T06:54:34.444Z,215.21
2023-05-02T06:55:34.430Z,213.94
2023-05-02T06:56:34.469Z,214.78
2023-05-02T06:57:34.398Z,214.22
2023-05-02T06:58:34.439Z,212.28
2023-05-02T06:59:34.380Z,213.66
2023-05-02T07:00:34.395Z,213.66
2023-05-02T07:01:34.411Z,211.74
2023-05-02T07:02:34.379Z,213.39
2023-05-02T07:03:34.388Z,212.56
2023-05-02T07:04:34.382Z,211.60
2023-05-02T07:05:34.340Z,211.46
2023-05-02T07:06:34.432Z,211.19
2023-05-02T07:07:34.291Z,210.65
2023-05-02T07:08:34.323Z,210.92
2023-05-02T07:09:34.280Z,207.98
2023-05-02T07:10:34.297Z,209.97
2023-05-02T07:11:34.263Z,207.71
2023-05-02T07:12:34.262Z,207.32
2023-05-02T07:13:34.246Z,205.37
2023-05-02T07:14:34.258Z,204.10
2023-05-02T07:15:34.215Z,201.84
2023-05-02T07:16:34.246Z,202.33
2023-05-02T07:17:34.219Z,202.09
2023-05-02T07:18:34.187Z,199.02
2023-05-02T07:19:34.185Z,199.63
2023-05-02T07:20:34.156Z,197.94
2023-05-02T07:21:34.141Z,197.46
2023-05-02T07:22:34.138Z,196.99
2023-05-02T07:23:34.156Z,196.52
2023-05-02T07:24:34.134Z,195.81
2023-05-02T07:25:34.121Z,194.65
2023-05-02T07:26:34.165Z,196.87
2023-05-02T07:27:34.092Z,194.54
2023-05-02T07:28:34.078Z,196.28
2023-05-02T07:29:34.077Z,193.73
2023-05-02T07:30:34.054Z,194.88
2023-05-02T07:31:34.071Z,193.85
2023-05-02T07:32:34.149Z,192.93
2023-05-02T07:33:34.013Z,191.92
2023-05-02T07:34:34.029Z,192.26
2023-05-02T07:35:33.998Z,191.92
2023-05-02T07:36:33.987Z,192.37
2023-05-02T07:37:34.503Z,192.71
2023-05-02T07:38:33.968Z,192.82
2023-05-02T07:39:33.974Z,193.85
2023-05-02T07:40:34.079Z,194.88
2023-05-02T07:41:33.939Z,195.12
2023-05-02T07:42:33.941Z,195.35
2023-05-02T07:43:33.911Z,195.58
2023-05-02T07:44:33.924Z,195.00
2023-05-02T07:45:33.876Z,196.16
2023-05-02T07:46:33.969Z,195.23
2023-05-02T07:47:33.872Z,195.46
2023-05-02T07:48:33.901Z,194.42
2023-05-02T07:49:33.860Z,193.85
2023-05-02T07:50:33.830Z,193.73
2023-05-02T07:51:33.826Z,192.37
2023-05-02T07:52:33.811Z,191.58
2023-05-02T07:53:33.825Z,190.69
2023-05-02T07:54:33.803Z,189.70
2023-05-02T07:55:33.789Z,188.50
2023-05-02T07:56:33.768Z,188.50
2023-05-02T07:57:33.791Z,187.00
2023-05-02T07:58:33.756Z,185.52
2023-05-02T07:59:33.747Z,184.99
2023-05-02T08:00:33.717Z,186.04
2023-05-02T08:01:33.765Z,185.62
2023-05-02T08:02:33.749Z,183.78
2023-05-02T08:03:33.884Z,183.18
2023-05-02T08:04:33.811Z,182.18
2023-05-02T08:05:33.675Z,181.38
2023-05-02T08:06:33.726Z,182.78
2023-05-02T08:07:33.650Z,181.38
2023-05-02T08:08:33.640Z,180.99
2023-05-02T08:09:33.650Z,180.80
2023-05-02T08:10:33.611Z,179.63
2023-05-02T08:11:33.604Z,181.19
2023-05-02T08:12:33.630Z,180.40
2023-05-02T08:13:33.573Z,180.02
2023-05-02T08:14:42.268Z,179.82
2023-05-02T08:15:33.557Z,180.40
2023-05-02T08:16:33.615Z,180.40
2023-05-02T08:17:33.624Z,179.82
2023-05-02T08:18:33.524Z,180.40
2023-05-02T08:19:33.537Z,180.80
2023-05-02T08:20:33.514Z,180.02
2023-05-02T08:21:33.501Z,179.43
2023-05-02T08:22:33.496Z,179.82
2023-05-02T08:23:33.614Z,179.05
2023-05-02T08:24:33.460Z,178.09
2023-05-02T08:25:33.538Z,178.48
2023-05-02T08:26:33.442Z,179.82
2023-05-02T08:27:33.436Z,180.21
2023-05-02T08:28:33.427Z,179.82
2023-05-02T08:29:33.451Z,179.24
2023-05-02T08:30:33.408Z,179.63
2023-05-02T08:31:33.449Z,178.86
2023-05-02T08:32:33.422Z,178.67
2023-05-02T08:33:33.373Z,180.60
2023-05-02T08:34:33.378Z,179.24
2023-05-02T08:35:33.367Z,179.63
2023-05-02T08:36:33.337Z,179.24
2023-05-02T08:37:33.324Z,179.82
2023-05-02T08:38:33.331Z,180.40
2023-05-02T08:39:33.314Z,180.99
2023-05-02T08:40:40.888Z,181.19
2023-05-02T08:41:34.292Z,181.58
2023-05-02T08:42:33.264Z,182.38
2023-05-02T08:43:33.266Z,182.78
2023-05-02T08:44:33.261Z,183.99
2023-05-02T08:45:33.261Z,184.80
2023-05-02T08:46:33.372Z,185.83
2023-05-02T08:47:33.294Z,185.52
2023-05-02T08:48:33.214Z,186.15
2023-05-02T08:49:33.191Z,187.75
2023-05-02T08:50:33.263Z,188.83
2023-05-02T08:51:33.161Z,189.92
2023-05-02T08:52:33.148Z,190.03
2023-05-02T08:53:33.216Z,191.25
2023-05-02T08:54:33.154Z,192.93
2023-05-02T08:55:33.138Z,195.81
2023-05-02T08:56:33.126Z,196.28
2023-05-02T08:57:33.147Z,196.99
2023-05-02T08:58:33.109Z,198.30
2023-05-02T08:59:33.103Z,199.38
2023-05-02T09:00:33.141Z,199.63
2023-05-02T09:01:33.107Z,199.63
2023-05-02T09:02:33.082Z,200.73
2023-05-02T09:03:33.058Z,201.34
2023-05-02T09:04:33.142Z,201.71
2023-05-02T09:05:33.033Z,201.59
2023-05-02T09:06:33.081Z,201.46
2023-05-02T09:07:33.066Z,201.96
2023-05-02T09:08:32.992Z,202.09
2023-05-02T09:09:32.992Z,202.46
2023-05-02T09:10:33.008Z,203.21
2023-05-02T09:11:32.964Z,203.84
2023-05-02T09:12:32.937Z,204.22
2023-05-02T09:13:32.959Z,205.63
2023-05-02T09:14:32.951Z,205.89
2023-05-02T09:15:32.937Z,206.02
2023-05-02T09:16:32.956Z,206.41
2023-05-02T09:17:32.939Z,206.41
2023-05-02T09:18:32.881Z,206.02
2023-05-02T09:19:32.878Z,206.54
2023-05-02T09:20:32.929Z,206.28
2023-05-02T09:21:32.858Z,207.06
2023-05-02T09:22:32.843Z,207.45
2023-05-02T09:23:32.907Z,206.93
2023-05-02T09:24:32.824Z,208.11
2023-05-02T09:25:32.825Z,208.90
2023-05-02T09:26:32.949Z,209.84
2023-05-02T09:27:32.769Z,210.51
2023-05-02T09:28:32.786Z,210.92
2023-05-02T09:29:32.773Z,210.51
2023-05-02T09:30:32.816Z,211.33
2023-05-02T09:31:54.222Z,212.15
2023-05-02T09:32:33.741Z,213.11
2023-05-02T09:33:32.725Z,213.66
2023-05-02T09:34:32.702Z,212.15
2023-05-02T09:35:32.708Z,212.56
2023-05-02T09:36:32.684Z,214.22
2023-05-02T09:37:32.724Z,215.63
2023-05-02T09:38:32.648Z,217.49
2023-05-02T09:39:32.637Z,217.78
2023-05-02T09:40:32.663Z,219.97
2023-05-02T09:41:32.648Z,220.26
2023-05-02T09:42:32.643Z,220.26
2023-05-02T09:43:32.608Z,220.86
2023-05-02T09:44:32.895Z,223.26
2023-05-02T09:45:32.620Z,224.33
2023-05-02T09:46:32.687Z,225.41
2023-05-02T09:47:32.601Z,226.03
2023-05-02T09:48:32.566Z,227.91
2023-05-02T09:49:32.547Z,229.03
2023-05-02T09:50:33.020Z,229.19
2023-05-02T09:51:32.532Z,229.99
2023-05-02T09:52:32.511Z,229.51
2023-05-02T09:53:32.484Z,229.83
2023-05-02T09:54:32.483Z,231.12
2023-05-02T09:55:32.466Z,230.48
2023-05-02T09:56:32.509Z,229.51
2023-05-02T09:57:32.472Z,231.12
2023-05-02T09:58:32.445Z,232.60
2023-05-02T09:59:32.512Z,233.93
2023-05-02T10:00:32.413Z,235.44
2023-05-02T10:01:32.460Z,236.45
2023-05-02T10:02:32.410Z,238.17
2023-05-02T10:03:32.401Z,238.86
2023-05-02T10:04:32.464Z,238.52
2023-05-02T10:05:32.376Z,239.91
2023-05-02T10:06:32.385Z,240.79
2023-05-02T10:07:32.353Z,241.32
2023-05-02T10:08:32.330Z,241.68
2023-05-02T10:09:32.485Z,242.39
2023-05-02T10:10:32.340Z,244.01
2023-05-02T10:11:32.298Z,244.93
2023-05-02T10:12:32.356Z,247.33
2023-05-02T10:13:32.297Z,247.70
2023-05-02T10:14:32.279Z,248.64
2023-05-02T10:15:32.296Z,249.01
2023-05-02T10:16:32.450Z,249.20
2023-05-02T10:17:32.354Z,249.58
2023-05-02T10:18:32.235Z,248.26
2023-05-02T10:19:32.268Z,248.45
2023-05-02T10:20:32.234Z,247.33
2023-05-02T10:21:32.233Z,247.33
2023-05-02T10:22:32.195Z,245.84
2023-05-02T10:23:32.294Z,245.66
2023-05-02T10:24:32.188Z,243.83
2023-05-02T10:25:32.145Z,245.11
2023-05-02T10:26:32.170Z,244.56
2023-05-02T10:27:32.521Z,242.93
2023-05-02T10:28:32.192Z,244.01
2023-05-02T10:29:32.122Z,244.20
2023-05-02T10:30:32.120Z,244.56
2023-05-02T10:31:32.181Z,244.56
2023-05-02T10:32:32.264Z,244.93
2023-05-02T10:33:32.060Z,245.11
2023-05-02T10:34:32.104Z,246.40
2023-05-02T10:35:32.035Z,245.84
2023-05-02T10:36:32.086Z,247.89
2023-05-02T10:37:32.018Z,248.45
2023-05-02T10:38:32.008Z,249.20
2023-05-02T10:39:32.109Z,249.96
2023-05-02T10:40:31.983Z,252.46
2023-05-02T10:41:31.981Z,252.66
2023-05-02T10:42:32.039Z,253.05
2023-05-02T10:43:31.949Z,253.05
2023-05-02T10:44:31.955Z,253.83
2023-05-02T10:45:31.950Z,254.23
2023-05-02T10:46:32.041Z,252.66
2023-05-02T10:47:32.046Z,252.46
2023-05-02T10:48:31.923Z,254.42
2023-05-02T10:49:31.882Z,253.05
2023-05-02T10:50:31.888Z,252.27
2023-05-02T10:51:31.912Z,252.66
2023-05-02T10:52:31.893Z,253.24
2023-05-02T10:53:31.855Z,253.83
2023-05-02T10:54:31.987Z,252.85
2023-05-02T10:55:31.805Z,257.01
2023-05-02T10:56:31.962Z,254.82
2023-05-02T10:57:31.814Z,254.42
2023-05-02T10:58:31.778Z,254.42
2023-05-02T10:59:31.919Z,255.61
2023-05-02T11:00:31.811Z,257.01
2023-05-02T11:01:31.791Z,258.84
2023-05-02T11:02:31.826Z,258.23
2023-05-02T11:03:31.731Z,260.27
2023-05-02T11:04:31.774Z,258.23
2023-05-02T11:05:31.694Z,259.66
2023-05-02T11:06:31.897Z,257.42
2023-05-02T11:07:31.695Z,258.02
2023-05-02T11:08:31.683Z,256.81
2023-05-02T11:09:31.723Z,256.21
2023-05-02T11:10:31.666Z,257.01
2023-05-02T11:11:31.637Z,256.01
2023-05-02T11:12:31.665Z,257.62
2023-05-02T11:13:31.641Z,259.04
2023-05-02T11:14:31.625Z,258.02
2023-05-02T11:15:31.609Z,260.69
2023-05-02T11:16:31.656Z,258.23
2023-05-02T11:17:31.624Z,261.73
2023-05-02T11:18:31.556Z,260.27
2023-05-02T11:19:31.750Z,260.07
2023-05-02T11:20:31.643Z,261.94
2023-05-02T11:21:31.541Z,263.83
2023-05-02T11:22:31.525Z,262.78
2023-05-02T11:23:31.610Z,261.31
2023-05-02T11:24:31.501Z,264.26
2023-05-02T11:25:31.488Z,261.94
2023-05-02T11:26:31.476Z,262.78
2023-05-02T11:27:31.550Z,264.05
2023-05-02T11:28:31.478Z,264.68
2023-05-02T11:29:31.444Z,267.27
2023-05-02T11:30:31.723Z,269.02
2023-05-02T11:31:31.453Z,267.93
2023-05-02T11:32:31.607Z,268.58
2023-05-02T11:33:31.432Z,271.92
2023-05-02T11:34:31.420Z,272.83
2023-05-02T11:35:31.395Z,273.28
2023-05-02T11:36:31.504Z,275.58
2023-05-02T11:37:31.409Z,273.51
2023-05-02T11:38:31.419Z,273.97
2023-05-02T11:39:31.326Z,277.91
2023-05-02T11:40:31.344Z,279.81
2023-05-02T11:41:31.301Z,279.09
2023-05-02T11:42:31.367Z,281.25
2023-05-02T11:43:32.424Z,278.62
2023-05-02T11:44:31.291Z,279.33
2023-05-02T11:45:31.285Z,279.57
2023-05-02T11:46:31.401Z,278.15
2023-05-02T11:47:31.394Z,276.04
2023-05-02T11:48:31.257Z,273.97
2023-05-02T11:49:31.325Z,270.80
2023-05-02T11:50:31.232Z,270.35
2023-05-02T11:51:31.191Z,269.02
2023-05-02T11:52:31.228Z,267.27
2023-05-02T11:53:31.191Z,265.33
2023-05-02T11:54:31.186Z,262.15
2023-05-02T11:55:31.157Z,261.10
2023-05-02T11:56:31.142Z,259.66
2023-05-02T11:57:38.634Z,256.81
2023-05-02T11:58:31.112Z,255.21
2023-05-02T11:59:31.115Z,250.73
2023-05-02T12:00:31.094Z,248.64
2023-05-02T12:01:31.078Z,245.66
2023-05-02T12:02:31.146Z,244.01
2023-05-02T12:03:31.156Z,241.68
2023-05-02T12:04:31.093Z,240.09
2023-05-02T12:05:31.107Z,238.52
2023-05-02T12:06:31.066Z,237.48
2023-05-02T12:07:31.032Z,235.94
2023-05-02T12:08:31.013Z,234.76
2023-05-02T12:09:31.021Z,233.59
2023-05-02T12:10:30.984Z,232.27
2023-05-02T12:11:30.964Z,231.29
2023-05-02T12:12:30.977Z,229.83
2023-05-02T12:13:30.964Z,228.55
2023-05-02T12:14:30.962Z,227.12
2023-05-02T12:15:30.949Z,225.72
2023-05-02T12:16:31.078Z,224.33
2023-05-02T12:17:31.025Z,222.96
2023-05-02T12:18:30.923Z,222.35
2023-05-02T12:19:30.917Z,221.15
2023-05-02T12:20:30.896Z,219.38
2023-05-02T12:21:30.871Z,217.78
2023-05-02T12:22:30.856Z,216.49
2023-05-02T12:23:30.872Z,215.21
2023-05-02T12:24:30.886Z,214.36
2023-05-02T12:25:30.820Z,212.70
2023-05-02T12:26:30.831Z,211.05
2023-05-02T12:27:30.789Z,209.57
2023-05-02T12:28:30.789Z,207.85
2023-05-02T12:29:30.825Z,206.80